createdAt,value
2023-02-16T00:00:27.676Z,94.37
2023-02-16T00:02:54.781Z,88.40
2023-02-16T00:05:34.672Z,89.60
2023-02-16T00:08:02.409Z,90.67
2023-02-16T00:10:39.911Z,88.13
2023-02-16T00:13:44.412Z,86.03
2023-02-16T00:16:24.664Z,91.00
2023-02-16T00:18:53.096Z,91.60
2023-02-16T00:21:20.654Z,90.20
2023-02-16T00:23:48.535Z,93.90
2023-02-16T00:26:27.888Z,90.40
2023-02-16T00:29:00.844Z,93.57
2023-02-16T00:31:33.007Z,90.10
2023-02-16T00:34:20.387Z,90.33
2023-02-16T00:36:47.338Z,95.63
2023-02-16T00:39:14.353Z,84.37
2023-02-16T00:41:50.675Z,91.60
2023-02-16T00:44:18.540Z,97.83
2023-02-16T00:46:46.518Z,87.97
2023-02-16T00:49:16.078Z,92.87
2023-02-16T00:51:43.712Z,89.90
2023-02-16T00:54:10.947Z,94.17
2023-02-16T00:56:39.060Z,90.03
2023-02-16T00:59:11.889Z,87.07
2023-02-16T01:01:39.011Z,86.77
2023-02-16T01:04:10.733Z,87.63
2023-02-16T01:06:56.982Z,82.93
2023-02-16T01:09:42.501Z,85.83
2023-02-16T01:12:18.180Z,89.67
2023-02-16T01:14:51.681Z,92.37
2023-02-16T01:17:18.712Z,86.60
2023-02-16T01:19:45.736Z,89.07
2023-02-16T01:22:13.192Z,92.37
2023-02-16T01:24:40.240Z,90.10
2023-02-16T01:27:13.321Z,88.70
2023-02-16T01:29:40.326Z,86.60
2023-02-16T01:32:07.499Z,85.47
2023-02-16T01:34:34.547Z,85.90
2023-02-16T01:37:01.579Z,88.17
2023-02-16T01:39:28.629Z,85.13
2023-02-16T01:42:32.383Z,82.17
2023-02-16T01:45:05.021Z,87.37
2023-02-16T01:47:54.675Z,92.47
2023-02-16T01:50:26.098Z,80.50
2023-02-16T01:53:02.161Z,87.27
2023-02-16T01:55:43.815Z,87.23
2023-02-16T01:58:46.310Z,82.47
2023-02-16T02:01:38.519Z,84.50
2023-02-16T02:04:53.288Z,88.80
2023-02-16T02:07:29.956Z,84.40
2023-02-16T02:10:41.843Z,81.47
2023-02-16T02:13:16.840Z,79.13
2023-02-16T02:15:44.233Z,84.07
2023-02-16T02:18:11.284Z,85.00
2023-02-16T02:21:55.290Z,82.57
2023-02-16T02:25:05.236Z,85.73
2023-02-16T02:27:39.957Z,83.03
2023-02-16T02:30:27.993Z,86.73
2023-02-16T02:33:32.404Z,79.63
2023-02-16T02:36:15.369Z,83.63
2023-02-16T02:38:56.758Z,83.13
2023-02-16T02:42:04.226Z,79.10
2023-02-16T02:44:41.003Z,81.20
2023-02-16T02:47:08.419Z,77.23
2023-02-16T02:49:35.385Z,73.67
2023-02-16T02:52:02.499Z,81.37
2023-02-16T02:54:55.510Z,83.33
2023-02-16T02:57:54.169Z,73.37
2023-02-16T03:00:47.362Z,76.93
2023-02-16T03:03:33.336Z,72.80
2023-02-16T03:06:17.341Z,76.63
2023-02-16T03:08:48.767Z,78.77
2023-02-16T03:11:43.267Z,73.80
2023-02-16T03:14:29.803Z,79.77
2023-02-16T03:17:22.530Z,76.43
2023-02-16T03:20:10.387Z,74.07
2023-02-16T03:22:57.734Z,76.23
2023-02-16T03:25:48.786Z,74.43
2023-02-16T03:28:37.066Z,76.43
2023-02-16T03:31:07.554Z,75.17
2023-02-16T03:33:35.600Z,73.90
2023-02-16T03:36:03.929Z,79.40
2023-02-16T03:38:31.286Z,72.63
2023-02-16T03:40:58.205Z,75.07
2023-02-16T03:43:27.982Z,75.37
2023-02-16T03:45:55.372Z,81.47
2023-02-16T03:48:22.487Z,73.57
2023-02-16T03:50:49.549Z,73.47
2023-02-16T03:53:18.295Z,78.13
2023-02-16T03:55:48.046Z,74.63
2023-02-16T03:58:21.339Z,79.57
2023-02-16T04:00:48.943Z,69.50
2023-02-16T04:03:16.567Z,69.43
2023-02-16T04:05:44.255Z,67.93
2023-02-16T04:08:11.988Z,73.73
2023-02-16T04:10:40.037Z,66.80
2023-02-16T04:13:07.334Z,71.30
2023-02-16T04:15:34.483Z,76.20
2023-02-16T04:18:02.079Z,76.83
2023-02-16T04:20:32.547Z,71.37
2023-02-16T04:23:00.477Z,67.20
2023-02-16T04:25:28.176Z,70.63
2023-02-16T04:27:55.861Z,76.50
2023-02-16T04:30:27.974Z,77.43
2023-02-16T04:32:55.619Z,74.13
2023-02-16T04:35:23.162Z,79.07
2023-02-16T04:37:50.340Z,72.40
2023-02-16T04:40:18.599Z,77.00
2023-02-16T04:42:46.020Z,72.10
2023-02-16T04:45:13.642Z,75.23
2023-02-16T04:47:40.946Z,72.97
2023-02-16T04:50:09.343Z,80.93
2023-02-16T04:52:37.944Z,78.07
2023-02-16T04:55:07.422Z,69.67
2023-02-16T04:57:34.452Z,75.63
2023-02-16T05:00:01.429Z,72.03
2023-02-16T05:02:28.600Z,66.40
2023-02-16T05:05:02.559Z,66.80
2023-02-16T05:07:29.622Z,68.03
2023-02-16T05:09:56.615Z,69.60
2023-02-16T05:12:42.515Z,63.77
2023-02-16T05:15:09.548Z,65.70
2023-02-16T05:17:36.585Z,63.50
2023-02-16T05:20:04.117Z,70.83
2023-02-16T05:22:34.558Z,69.03
2023-02-16T05:25:03.322Z,69.13
2023-02-16T05:27:31.360Z,67.10
2023-02-16T05:29:58.968Z,68.13
2023-02-16T05:32:26.270Z,67.30
2023-02-16T05:34:53.302Z,63.77
2023-02-16T05:37:20.384Z,68.17
2023-02-16T05:39:47.491Z,71.77
2023-02-16T05:42:14.628Z,64.73
2023-02-16T05:44:41.696Z,67.20
2023-02-16T05:47:08.727Z,72.70
2023-02-16T05:49:37.034Z,72.83
2023-02-16T05:52:04.113Z,74.80
2023-02-16T05:54:31.158Z,72.87
2023-02-16T05:56:58.144Z,65.77
2023-02-16T05:59:25.138Z,69.77
2023-02-16T06:01:52.651Z,74.40
2023-02-16T06:04:21.650Z,66.90
2023-02-16T06:06:49.073Z,71.67
2023-02-16T06:09:17.552Z,66.10
2023-02-16T06:11:44.803Z,67.07
2023-02-16T06:14:19.008Z,67.37
2023-02-16T06:16:49.347Z,73.30
2023-02-16T06:19:18.838Z,70.70
2023-02-16T06:21:46.415Z,69.13
2023-02-16T06:24:15.157Z,65.63
2023-02-16T06:26:42.428Z,66.63
2023-02-16T06:29:10.466Z,70.63
2023-02-16T06:31:37.761Z,68.23
2023-02-16T06:34:05.468Z,67.97
2023-02-16T06:36:33.163Z,66.73
2023-02-16T06:39:00.492Z,71.40
2023-02-16T06:41:40.125Z,66.47
2023-02-16T06:44:13.635Z,68.57
2023-02-16T06:46:42.329Z,68.93
2023-02-16T06:49:20.605Z,73.23
2023-02-16T06:51:49.519Z,65.80
2023-02-16T06:54:17.842Z,72.73
2023-02-16T06:56:44.820Z,68.20
2023-02-16T06:59:12.652Z,67.43
2023-02-16T07:01:39.774Z,64.47
2023-02-16T07:04:06.888Z,69.03
2023-02-16T07:06:34.066Z,65.97
2023-02-16T07:09:01.171Z,66.80
2023-02-16T07:11:28.344Z,69.27
2023-02-16T07:13:55.527Z,64.20
2023-02-16T07:16:22.835Z,64.67
2023-02-16T07:18:49.892Z,69.50
2023-02-16T07:21:17.223Z,70.13
2023-02-16T07:23:44.377Z,67.90
2023-02-16T07:26:11.748Z,71.37
2023-02-16T07:28:38.755Z,65.37
2023-02-16T07:31:15.319Z,68.97
2023-02-16T07:33:43.381Z,70.07
2023-02-16T07:36:12.948Z,70.77
2023-02-16T07:38:43.411Z,76.50
2023-02-16T07:41:11.824Z,71.70
2023-02-16T07:43:39.448Z,70.03
2023-02-16T07:46:06.535Z,78.63
2023-02-16T07:48:33.660Z,73.10
2023-02-16T07:51:01.719Z,69.77
2023-02-16T07:53:28.709Z,77.43
2023-02-16T07:55:56.688Z,74.50
2023-02-16T07:58:29.987Z,78.03
2023-02-16T08:01:09.647Z,74.10
2023-02-16T08:03:37.138Z,74.03
2023-02-16T08:06:05.710Z,77.80
2023-02-16T08:08:33.032Z,76.37
2023-02-16T08:11:00.704Z,76.07
2023-02-16T08:13:27.779Z,72.77
2023-02-16T08:15:54.781Z,75.93
2023-02-16T08:18:21.736Z,77.63
2023-02-16T08:21:03.290Z,75.30
2023-02-16T08:23:31.603Z,79.90
2023-02-16T08:25:59.215Z,74.07
2023-02-16T08:28:28.563Z,78.57
2023-02-16T08:30:55.915Z,75.50
2023-02-16T08:33:23.025Z,74.23
2023-02-16T08:35:50.351Z,73.07
2023-02-16T08:38:17.398Z,75.70
2023-02-16T08:40:51.676Z,74.93
2023-02-16T08:43:18.664Z,74.97
2023-02-16T08:45:49.099Z,71.07
2023-02-16T08:48:16.762Z,73.63
2023-02-16T08:50:53.509Z,73.27
2023-02-16T08:53:23.316Z,71.40
2023-02-16T08:55:58.140Z,72.67
2023-02-16T08:58:25.642Z,75.27
2023-02-16T09:00:53.135Z,75.13
2023-02-16T09:03:20.288Z,80.97
2023-02-16T09:05:49.795Z,73.93
2023-02-16T09:08:17.323Z,76.63
2023-02-16T09:10:44.342Z,73.87
2023-02-16T09:13:14.940Z,72.53
2023-02-16T09:15:47.431Z,79.33
2023-02-16T09:18:14.902Z,78.33
2023-02-16T09:20:46.763Z,72.37
2023-02-16T09:23:14.102Z,76.07
2023-02-16T09:25:44.085Z,84.23
2023-02-16T09:28:13.850Z,73.20
2023-02-16T09:30:40.929Z,75.67
2023-02-16T09:33:08.017Z,75.03
2023-02-16T09:35:34.984Z,83.13
2023-02-16T09:38:02.989Z,77.13
2023-02-16T09:40:30.884Z,73.57
2023-02-16T09:43:21.020Z,73.77
2023-02-16T09:45:51.356Z,75.87
2023-02-16T09:48:38.649Z,68.80
2023-02-16T09:51:09.109Z,69.37
2023-02-16T09:53:42.945Z,68.67
2023-02-16T09:56:56.540Z,69.33
2023-02-16T09:59:44.058Z,66.17
2023-02-16T10:02:42.099Z,66.20
2023-02-16T10:05:20.324Z,59.80
2023-02-16T10:08:09.474Z,62.23
2023-02-16T10:10:48.236Z,63.13
2023-02-16T10:13:44.012Z,65.63
2023-02-16T10:16:28.396Z,67.57
2023-02-16T10:18:56.629Z,68.77
2023-02-16T10:21:28.132Z,69.70
2023-02-16T10:24:06.157Z,66.40
2023-02-16T10:27:16.689Z,67.67
2023-02-16T10:29:43.758Z,63.67
2023-02-16T10:32:23.300Z,64.53
2023-02-16T10:35:10.911Z,66.53
2023-02-16T10:38:35.774Z,58.20
2023-02-16T10:41:33.537Z,57.20
2023-02-16T10:44:18.974Z,63.83
2023-02-16T10:46:54.205Z,61.37
2023-02-16T10:49:21.753Z,58.73
2023-02-16T10:51:52.239Z,59.13
2023-02-16T10:54:27.274Z,61.20
2023-02-16T10:57:04.151Z,61.40
2023-02-16T10:59:45.020Z,57.13
2023-02-16T11:02:39.015Z,54.30
2023-02-16T11:05:42.292Z,55.23
2023-02-16T11:08:12.865Z,63.13
2023-02-16T11:10:51.863Z,61.33
2023-02-16T11:13:35.305Z,58.33
2023-02-16T11:16:11.984Z,56.57
2023-02-16T11:18:43.088Z,62.87
2023-02-16T11:21:12.254Z,60.57
2023-02-16T11:23:42.248Z,64.53
2023-02-16T11:26:12.190Z,58.37
2023-02-16T11:28:43.228Z,53.63
2023-02-16T11:31:14.510Z,48.57
2023-02-16T11:33:43.747Z,53.50
2023-02-16T11:36:29.590Z,54.53
2023-02-16T11:39:14.247Z,52.30
2023-02-16T11:41:56.215Z,53.10
2023-02-16T11:44:41.547Z,54.67
2023-02-16T11:47:40.474Z,49.87
2023-02-16T11:50:32.145Z,54.83
2023-02-16T11:53:16.973Z,54.70
2023-02-16T11:55:51.153Z,53.00
2023-02-16T11:58:29.257Z,56.60
2023-02-16T12:01:28.292Z,57.50
2023-02-16T12:04:51.440Z,51.73
2023-02-16T12:07:47.076Z,54.53
2023-02-16T12:10:33.922Z,53.27
2023-02-16T12:13:26.838Z,57.07
2023-02-16T12:16:06.784Z,49.57
2023-02-16T12:18:51.584Z,45.23
2023-02-16T12:21:45.508Z,45.93
2023-02-16T12:24:44.251Z,45.60
2023-02-16T12:27:24.791Z,47.37
2023-02-16T12:30:02.104Z,42.83
2023-02-16T12:32:47.921Z,45.93
2023-02-16T12:35:51.477Z,42.03
2023-02-16T12:38:34.804Z,47.17
2023-02-16T12:41:21.972Z,46.57
2023-02-16T12:43:59.018Z,47.83
2023-02-16T12:46:42.662Z,43.20
2023-02-16T12:49:21.449Z,47.67
2023-02-16T12:52:00.939Z,44.73
2023-02-16T12:54:52.433Z,38.50
2023-02-16T12:57:25.114Z,50.20
2023-02-16T13:00:02.111Z,47.10
2023-02-16T13:02:46.236Z,44.67
2023-02-16T13:05:24.127Z,45.43
2023-02-16T13:08:06.504Z,39.80
2023-02-16T13:10:57.978Z,43.50
2023-02-16T13:13:27.909Z,39.40
2023-02-16T13:16:30.483Z,40.33
2023-02-16T13:18:58.748Z,41.57
2023-02-16T13:22:08.478Z,44.13
2023-02-16T13:25:21.051Z,39.00
2023-02-16T13:28:16.771Z,39.83
2023-02-16T13:31:24.190Z,40.30
2023-02-16T13:34:34.372Z,40.00
2023-02-16T13:37:23.548Z,43.70
2023-02-16T13:40:51.104Z,39.17
2023-02-16T13:43:36.578Z,46.90
2023-02-16T13:46:12.248Z,40.73
2023-02-16T13:48:48.324Z,40.57
2023-02-16T13:51:22.009Z,44.37
2023-02-16T13:54:04.011Z,40.60
2023-02-16T13:56:30.998Z,43.73
2023-02-16T13:59:18.636Z,41.70
2023-02-16T14:01:51.140Z,41.17
2023-02-16T14:04:27.087Z,42.10
2023-02-16T14:07:07.341Z,45.50
2023-02-16T14:09:37.427Z,41.00
2023-02-16T14:12:11.843Z,37.87
2023-02-16T14:14:53.515Z,43.53
2023-02-16T14:17:21.660Z,39.13
2023-02-16T14:20:05.710Z,40.20
2023-02-16T14:22:57.494Z,37.60
2023-02-16T14:25:32.619Z,34.40
2023-02-16T14:28:21.514Z,36.97
2023-02-16T14:31:12.050Z,34.63
2023-02-16T14:34:04.659Z,36.23
2023-02-16T14:36:32.237Z,30.43
2023-02-16T14:39:00.843Z,35.43
2023-02-16T14:41:34.950Z,34.07
2023-02-16T14:44:04.811Z,32.33
2023-02-16T14:46:58.866Z,35.20
2023-02-16T14:50:05.373Z,32.80
2023-02-16T14:52:47.235Z,34.10
2023-02-16T14:55:29.356Z,31.73
2023-02-16T14:58:03.244Z,28.47
2023-02-16T15:01:08.694Z,35.90
2023-02-16T15:03:41.707Z,35.00
2023-02-16T15:06:34.750Z,34.63
2023-02-16T15:09:31.582Z,37.80
2023-02-16T15:12:22.197Z,36.40
2023-02-16T15:14:54.822Z,36.53
2023-02-16T15:17:45.373Z,39.70
2023-02-16T15:20:34.328Z,34.10
2023-02-16T15:23:07.442Z,40.80
2023-02-16T15:25:42.124Z,40.30
2023-02-16T15:28:12.112Z,36.00
2023-02-16T15:30:56.525Z,42.67
2023-02-16T15:33:23.501Z,34.23
2023-02-16T15:35:59.268Z,32.57
2023-02-16T15:38:33.525Z,35.53
2023-02-16T15:41:08.150Z,36.23
2023-02-16T15:43:50.320Z,36.00
2023-02-16T15:46:40.467Z,33.70
2023-02-16T15:49:34.916Z,31.90
2023-02-16T15:52:02.492Z,32.63
2023-02-16T15:54:32.477Z,34.57
2023-02-16T15:57:06.637Z,32.90
2023-02-16T15:59:46.808Z,33.70
2023-02-16T16:02:22.910Z,29.17
2023-02-16T16:05:00.213Z,34.90
2023-02-16T16:07:35.827Z,30.43
2023-02-16T16:10:15.539Z,31.10
2023-02-16T16:12:43.385Z,32.03
2023-02-16T16:15:18.662Z,27.60
2023-02-16T16:17:45.688Z,25.23
2023-02-16T16:20:39.566Z,34.63
2023-02-16T16:23:14.148Z,31.17
2023-02-16T16:25:47.864Z,30.80
2023-02-16T16:28:36.229Z,28.07
2023-02-16T16:31:33.180Z,39.97
2023-02-16T16:34:08.806Z,33.07
2023-02-16T16:36:55.337Z,29.97
2023-02-16T16:39:27.389Z,32.17
2023-02-16T16:41:57.371Z,21.47
2023-02-16T16:44:40.445Z,20.97
2023-02-16T16:47:37.669Z,24.17
2023-02-16T16:50:10.703Z,22.40
2023-02-16T16:52:49.655Z,26.53
2023-02-16T16:55:19.766Z,27.60
2023-02-16T16:57:49.290Z,29.93
2023-02-16T17:00:19.807Z,24.47
2023-02-16T17:02:47.088Z,25.50
2023-02-16T17:05:14.223Z,28.10
2023-02-16T17:07:41.252Z,29.10
2023-02-16T17:10:09.085Z,25.17
2023-02-16T17:12:36.240Z,25.63
2023-02-16T17:15:04.587Z,24.70
2023-02-16T17:17:32.176Z,24.30
2023-02-16T17:19:59.113Z,22.63
2023-02-16T17:22:26.080Z,22.97
2023-02-16T17:24:53.201Z,27.40
2023-02-16T17:27:20.135Z,21.23
2023-02-16T17:29:47.200Z,26.83
2023-02-16T17:32:14.313Z,27.27
2023-02-16T17:34:41.367Z,26.50
2023-02-16T17:37:10.109Z,22.40
2023-02-16T17:39:37.053Z,21.23
2023-02-16T17:42:04.270Z,20.47
2023-02-16T17:44:31.226Z,21.20
2023-02-16T17:46:58.283Z,20.07
2023-02-16T17:49:25.685Z,23.60
2023-02-16T17:51:53.594Z,20.87
2023-02-16T17:54:20.740Z,24.67
2023-02-16T17:56:47.779Z,21.37
2023-02-16T17:59:15.510Z,21.57
2023-02-16T18:01:44.375Z,26.23
2023-02-16T18:04:11.610Z,21.17
2023-02-16T18:06:38.677Z,24.83
2023-02-16T18:09:05.871Z,23.80
2023-02-16T18:11:32.817Z,20.43
2023-02-16T18:13:59.761Z,22.37
2023-02-16T18:16:28.215Z,19.23
2023-02-16T18:18:57.294Z,21.50
2023-02-16T18:21:24.575Z,20.60
2023-02-16T18:23:51.545Z,18.63
2023-02-16T18:26:18.671Z,18.07
2023-02-16T18:28:45.732Z,18.33
2023-02-16T18:31:14.597Z,18.73
2023-02-16T18:33:41.885Z,19.63
2023-02-16T18:36:09.776Z,19.43
2023-02-16T18:38:37.171Z,20.60
2023-02-16T18:41:04.752Z,19.07
2023-02-16T18:43:31.696Z,19.00
2023-02-16T18:45:58.715Z,17.73
2023-02-16T18:48:25.763Z,17.90
2023-02-16T18:50:52.827Z,19.27
2023-02-16T18:53:19.780Z,18.20
2023-02-16T18:55:46.844Z,18.60
2023-02-16T18:58:14.980Z,16.53
2023-02-16T19:00:42.147Z,14.50
2023-02-16T19:03:10.385Z,15.67
2023-02-16T19:05:37.536Z,14.83
2023-02-16T19:08:05.603Z,18.40
2023-02-16T19:10:33.589Z,12.43
2023-02-16T19:13:02.130Z,13.37
2023-02-16T19:15:29.297Z,13.77
2023-02-16T19:17:56.319Z,11.67
2023-02-16T19:20:23.407Z,11.73
2023-02-16T19:22:50.683Z,10.73
2023-02-16T19:25:18.186Z,12.37
2023-02-16T19:27:45.222Z,13.50
2023-02-16T19:30:12.734Z,13.17
2023-02-16T19:32:41.241Z,10.53
2023-02-16T19:35:12.175Z,13.00
2023-02-16T19:37:39.560Z,12.37
2023-02-16T19:40:10.126Z,10.97
2023-02-16T19:42:38.587Z,14.57
2023-02-16T19:45:06.342Z,12.53
2023-02-16T19:47:33.763Z,12.73
2023-02-16T19:50:00.708Z,10.13
2023-02-16T19:52:27.824Z,14.03
2023-02-16T19:54:54.895Z,10.47
2023-02-16T19:57:21.862Z,10.63
2023-02-16T19:59:48.852Z,10.27
2023-02-16T20:02:16.009Z,13.83
2023-02-16T20:04:44.610Z,10.83
2023-02-16T20:07:11.581Z,15.43
2023-02-16T20:09:38.892Z,12.87
2023-02-16T20:12:07.058Z,10.90
2023-02-16T20:14:34.103Z,13.93
2023-02-16T20:17:01.194Z,12.70
2023-02-16T20:19:28.211Z,12.90
2023-02-16T20:21:55.297Z,15.50
2023-02-16T20:24:22.323Z,13.10
2023-02-16T20:26:51.333Z,16.07
2023-02-16T20:29:18.380Z,14.13
2023-02-16T20:32:05.955Z,15.13
2023-02-16T20:34:33.595Z,15.43
2023-02-16T20:37:00.718Z,15.40
2023-02-16T20:39:28.007Z,18.23
2023-02-16T20:41:55.113Z,17.23
2023-02-16T20:44:22.655Z,16.07
2023-02-16T20:46:51.175Z,16.50
2023-02-16T20:49:19.023Z,19.47
2023-02-16T20:51:45.976Z,19.80
2023-02-16T20:54:13.573Z,19.70
2023-02-16T20:56:41.012Z,20.07
2023-02-16T20:59:08.506Z,18.73
2023-02-16T21:01:41.012Z,14.77
2023-02-16T21:04:09.586Z,16.00
2023-02-16T21:06:37.540Z,17.10
2023-02-16T21:09:06.703Z,17.50
2023-02-16T21:11:34.459Z,12.67
2023-02-16T21:14:02.502Z,15.60
2023-02-16T21:16:30.401Z,13.30
2023-02-16T21:18:57.710Z,16.17
2023-02-16T21:21:25.556Z,17.27
2023-02-16T21:23:54.646Z,14.43
2023-02-16T21:26:24.659Z,15.53
2023-02-16T21:28:52.898Z,16.43
2023-02-16T21:31:25.108Z,19.60
2023-02-16T21:33:53.604Z,18.23
2023-02-16T21:36:24.894Z,14.97
2023-02-16T21:38:52.447Z,15.93
2023-02-16T21:41:26.198Z,14.33
2023-02-16T21:44:03.004Z,18.80
2023-02-16T21:46:39.831Z,14.13
2023-02-16T21:49:09.968Z,17.10
2023-02-16T21:51:38.744Z,13.53
2023-02-16T21:54:14.000Z,14.40
2023-02-16T21:56:50.138Z,12.00
2023-02-16T21:59:19.786Z,19.63
2023-02-16T22:01:53.462Z,13.93
2023-02-16T22:04:23.076Z,12.83
2023-02-16T22:06:51.224Z,11.27
2023-02-16T22:09:21.743Z,14.03
2023-02-16T22:11:49.395Z,12.80
2023-02-16T22:14:16.420Z,12.43
2023-02-16T22:16:46.378Z,13.90
2023-02-16T22:19:16.569Z,14.37
2023-02-16T22:21:45.552Z,14.63
2023-02-16T22:24:15.813Z,13.63
2023-02-16T22:26:43.828Z,11.47
2023-02-16T22:29:11.668Z,7.53
2023-02-16T22:31:39.503Z,6.43
2023-02-16T22:34:12.500Z,4.67
2023-02-16T22:36:40.261Z,5.33
2023-02-16T22:39:07.889Z,4.83
2023-02-16T22:41:35.799Z,4.57
2023-02-16T22:44:03.502Z,4.63
2023-02-16T22:46:30.976Z,4.50
2023-02-16T22:48:59.071Z,4.97
2023-02-16T22:51:30.276Z,3.73
2023-02-16T22:54:01.947Z,3.70
2023-02-16T22:56:31.023Z,5.00
2023-02-16T22:59:00.105Z,5.03
2023-02-16T23:01:29.341Z,4.90
2023-02-16T23:03:58.684Z,5.10
2023-02-16T23:06:35.289Z,3.93
2023-02-16T23:09:14.979Z,8.83
2023-02-16T23:11:42.427Z,5.67
2023-02-16T23:14:16.417Z,7.87
2023-02-16T23:16:46.460Z,8.43
2023-02-16T23:19:17.405Z,4.60
2023-02-16T23:21:44.837Z,4.90
2023-02-16T23:24:18.941Z,7.30
2023-02-16T23:26:46.125Z,5.43
2023-02-16T23:29:13.684Z,4.83
2023-02-16T23:31:43.559Z,3.10
2023-02-16T23:34:11.562Z,6.00
2023-02-16T23:36:39.794Z,4.80
2023-02-16T23:39:11.504Z,4.13
2023-02-16T23:41:39.610Z,3.63
2023-02-16T23:44:07.894Z,5.70
2023-02-16T23:46:35.366Z,4.83
2023-02-16T23:49:03.436Z,2.97
2023-02-16T23:51:30.693Z,4.80
2023-02-16T23:53:57.835Z,3.83
2023-02-16T23:56:27.539Z,4.90
2023-02-16T23:58:59.566Z,5.30
